Latest Coastal Weather Observations for Neptune Island

IDT60701

Issued at 6:52 am EST Tuesday 24 September 2019 (issued every 10 minutes, with the page automatically refreshed every 10 minutes)

About coastal observations | Map of coastal stations | Coastal observations for TAS | Marine services | Other Formats
Station Details ID: 018115 Name: NEPTUNE ISLAND Lat: -35.34 Lon: 136.12 Height: 32.0 m
Data from the previous 72 hours. | See also: Recent months at Neptune Island
Date/Time
EST
Wind Sea
Height
m
Swell Vis
km
Cloud Weather Temp
°C
Press
hPa
Rain since
9am
mm
Dir  Spd
kts
Gust
kts
Height
m
Period
s
Dir
24/06:30am W 7 10 - - - - - - - 12.1 1030.1 0.2
24/06:00am W 6 8 - - - - - - - 12.0 1029.9 0.2
24/05:30am WSW 7 9 - - - - - - - 12.0 1030.0 0.2
24/05:00am W 7 8 - - - - - - - 11.9 1029.8 0.2
24/04:30am SW 6 8 - - - - - - - 11.5 1029.6 0.2
24/04:00am WSW 8 11 - - - - - - - 11.6 1029.7 0.2
24/03:30am WSW 9 11 - - - - - - - 11.8 1029.8 0.2
24/03:00am WSW 9 12 - - - - - - - 11.8 1030.0 0.2
24/02:30am WSW 9 11 - - - - - - - 11.8 1030.2 0.2
24/02:00am WSW 11 14 - - - - - - - 11.9 1030.2 0.2
24/01:30am WSW 12 14 - - - - - - - 12.0 1030.3 0.2
24/01:00am WSW 12 14 - - - - - - - 12.0 1030.5 0.2
24/12:30am WSW 12 16 - - - - - - - 12.0 1030.5 0.2
24/12:00am WSW 11 14 - - - - - - - 11.9 1030.8 0.2
 
Date/Time
EST
Wind Sea
Height
m
Swell Vis
km
Cloud Weather Temp
°C
Press
hPa
Rain since
9am
mm
Dir  Spd
kts
Gust
kts
Height
m
Period
s
Dir
23/11:30pm WSW 12 14 - - - - - - - 11.8 1031.0 0.2
23/11:00pm W 14 16 - - - - - - - 11.9 1031.1 0.2
23/10:30pm WSW 13 15 - - - - - - - 11.8 1031.3 0.2
23/10:00pm W 11 15 - - - - - - - 11.6 1031.5 0.2
23/09:30pm W 10 12 - - - - - - Recent precip. 11.6 1031.7 0.2
23/09:00pm W 10 18 - - - - - - - 11.4 1031.7 0.0
23/08:30pm WNW 9 11 - - - - - - - 11.6 1031.5 0.0
23/08:00pm SW 9 12 - - - - - - - 12.2 1031.1 0.0
23/07:30pm SW 11 14 - - - - - - - 11.7 1030.9 0.0
23/07:00pm SW 10 15 - - - - - - - 12.3 1030.5 0.0
23/06:30pm WSW 8 10 - - - - - - - 12.4 1030.3 0.0
23/06:00pm SW 11 13 - - - - - - - 12.8 1030.2 0.0
23/05:30pm WSW 13 17 - - - - - - - 13.3 1029.8 0.0
23/05:00pm WSW 11 14 - - - - - - - 14.0 1029.7 0.0
23/04:30pm WSW 12 15 - - - - - - - 13.9 1029.5 0.0
23/04:00pm WSW 13 17 - - - - - - - 13.4 1029.6 0.0
23/03:30pm WSW 14 18 - - - - - - - 13.8 1029.7 0.0
23/03:00pm WSW 13 17 - - - - - - - 14.0 1029.8 0.0
23/02:30pm SW 10 12 - - - - - - - 13.9 1029.9 0.0
23/02:00pm WSW 15 19 - - - - - - - 13.9 1029.9 0.0
23/01:30pm W 11 15 - - - - - - - 14.0 1030.1 0.0
23/01:00pm W 12 17 - - - - - - - 12.0 1030.5 0.0
23/12:30pm WSW 12 16 - - - - - - - 13.1 1030.4 0.0
23/12:00pm SW 13 16 - - - - - - - 14.1 1030.4 0.0
23/11:30am WSW 16 20 - - - - - - - 13.2 1030.3 0.0
23/11:00am WSW 18 21 - - - - - - - 12.7 1030.3 0.0
23/10:30am W 18 22 - - - - - - - 13.5 1030.2 0.0
23/10:00am W 13 16 - - - - - - - 13.3 1030.2 0.0
23/09:30am W 12 15 - - - - - - - 12.9 1030.2 0.2
23/09:00am WSW 13 17 - - - - - - - 12.6 1030.0 0.2
23/08:30am WSW 18 21 - - - - - - - 12.5 1029.6 0.2
23/08:12am WSW 16 22 - - - - - - - 12.2 1029.4 0.2
23/08:00am WSW 9 12 - - - - - - - 12.0 1029.5 0.2
23/07:30am WSW 13 17 - - - - - - - 12.1 1029.2 0.2
23/07:00am WSW 16 19 - - - - - - - 12.2 1028.9 0.2
23/06:30am W 18 24 - - - - - - - 12.3 1028.5 0.2
23/06:00am WSW 12 15 - - - - - - - 11.9 1028.3 0.2
23/05:30am WSW 17 21 - - - - - - - 12.0 1028.0 0.2
23/05:00am W 16 21 - - - - - - - 12.1 1027.7 0.2
23/04:30am W 17 19 - - - - - - - 12.0 1027.3 0.2
23/04:00am WSW 19 22 - - - - - - - 12.0 1027.1 0.2
23/03:30am W 16 19 - - - - - - - 12.1 1027.2 0.2
23/03:00am W 21 24 - - - - - - - 12.0 1027.0 0.2
23/02:30am WSW 20 23 - - - - - - - 12.1 1027.1 0.2
23/02:00am WSW 19 22 - - - - - - - 12.1 1027.1 0.2
23/01:30am WSW 18 22 - - - - - - - 12.1 1026.9 0.2
23/01:00am WSW 19 23 - - - - - - - 12.2 1026.9 0.2
23/12:30am WSW 21 24 - - - - - - - 12.2 1026.8 0.2
23/12:00am WSW 19 24 - - - - - - - 12.3 1026.7 0.2
 
Date/Time
EST
Wind Sea
Height
m
Swell Vis
km
Cloud Weather Temp
°C
Press
hPa
Rain since
9am
mm
Dir  Spd
kts
Gust
kts
Height
m
Period
s
Dir
22/11:30pm WSW 20 25 - - - - - - - 12.1 1026.6 0.2
22/11:00pm WSW 19 24 - - - - - - - 12.2 1026.6 0.2
22/10:30pm WSW 21 25 - - - - - - - 12.2 1026.4 0.2
22/10:00pm WSW 22 25 - - - - - - - 12.2 1026.0 0.2
22/09:30pm WSW 22 26 - - - - - - - 12.2 1025.7 0.2
22/09:00pm WSW 25 29 - - - - - - - 12.2 1025.4 0.2
22/08:30pm WSW 24 29 - - - - - - - 12.5 1025.1 0.2
22/08:00pm WSW 25 31 - - - - - - - 12.5 1024.6 0.2
22/07:30pm W 23 28 - - - - - - - 12.4 1024.2 0.2
22/07:00pm WSW 22 27 - - - - - - - 12.5 1023.9 0.2
22/06:30pm W 21 24 - - - - - - - 12.5 1023.6 0.2
22/06:00pm W 27 31 - - - - - - - 12.4 1023.2 0.2
22/05:30pm WSW 30 36 - - - - - - - 11.8 1022.7 0.2
22/05:20pm W 30 41 - - - - - - - 12.0 1022.3 0.2
22/05:19pm W 29 38 - - - - - - - 12.7 1022.5 0.2
22/05:00pm W 22 27 - - - - - - - 13.0 1022.4 0.2
22/04:30pm W 23 26 - - - - - - - 13.4 1022.4 0.0
22/04:00pm W 25 33 - - - - - - - 13.0 1022.2 0.0
22/03:30pm WNW 26 31 - - - - - - - 14.4 1022.2 0.0
22/03:00pm WNW 27 32 - - - - - - - 14.1 1022.2 0.0
22/02:30pm WNW 25 31 - - - - - - - 14.1 1022.3 0.0
22/02:00pm WNW 27 31 - - - - - - - 13.8 1022.4 0.0
22/01:30pm WNW 25 29 - - - - - - - 14.3 1022.5 0.0
22/01:00pm WNW 24 29 - - - - - - - 14.5 1022.7 0.0
22/12:30pm WNW 23 28 - - - - - - - 13.9 1022.8 0.0
22/12:00pm WNW 22 29 - - - - - - - 14.1 1022.9 0.0
22/11:30am WNW 23 29 - - - - - - - 13.5 1023.0 0.0
22/11:00am WNW 21 28 - - - - - - - 13.4 1023.1 0.0
22/10:30am WNW 22 28 - - - - - - - 12.9 1023.2 0.0
22/10:00am WNW 20 25 - - - - - - - 13.1 1023.2 0.0
22/09:30am NW 20 24 - - - - - - - 13.2 1023.2 0.8
22/09:00am NW 19 23 - - - - - - - 13.0 1023.1 0.8
22/08:30am WNW 20 24 - - - - - - - 12.5 1022.8 0.8
22/08:00am WNW 19 23 - - - - - - - 12.0 1022.6 0.8
22/07:30am WNW 18 21 - - - - - - - 11.9 1022.4 0.8
22/07:00am W 17 19 - - - - - - - 11.8 1022.3 0.8
22/06:30am W 17 21 - - - - - - - 11.8 1022.1 0.8
22/06:00am WNW 15 18 - - - - - - - 11.6 1021.9 0.8
22/05:30am WNW 17 20 - - - - - - - 11.5 1021.6 0.8
22/05:00am WNW 16 19 - - - - - - - 11.5 1021.4 0.8
22/04:30am WNW 17 21 - - - - - - - 11.3 1021.1 0.8
22/04:00am WNW 15 18 - - - - - - - 11.4 1021.2 0.8
22/03:30am WNW 18 21 - - - - - - - 11.2 1021.4 0.8
22/03:00am WNW 19 23 - - - - - - - 11.1 1021.4 0.8
22/02:30am WNW 17 19 - - - - - - - 11.2 1021.6 0.8
22/02:00am W 18 21 - - - - - - - 11.3 1021.7 0.8
22/01:30am W 19 24 - - - - - - - 11.2 1021.8 0.8
22/01:00am W 18 22 - - - - - - - 11.5 1022.0 0.8
22/12:30am W 18 21 - - - - - - - 11.3 1022.1 0.8
22/12:00am W 18 20 - - - - - - - 11.4 1022.1 0.8
 
Date/Time
EST
Wind Sea
Height
m
Swell Vis
km
Cloud Weather Temp
°C
Press
hPa
Rain since
9am
mm
Dir  Spd
kts
Gust
kts
Height
m
Period
s
Dir
21/11:30pm W 17 22 - - - - - - - 11.2 1022.2 0.8
21/11:00pm W 15 19 - - - - - - - 10.9 1022.3 0.8
21/10:30pm W 16 19 - - - - - - - 10.9 1022.3 0.8
21/10:00pm WSW 14 19 - - - - - - - 10.7 1022.3 0.8
21/09:30pm W 16 20 - - - - - - - 11.2 1022.2 0.8
21/09:00pm W 16 21 - - - - - - - 11.0 1022.1 0.8
21/08:30pm W 18 24 - - - - - - - 11.0 1022.0 0.8
21/08:00pm W 18 21 - - - - - - - 11.0 1021.7 0.8
21/07:30pm W 20 23 - - - - - - - 11.2 1021.2 0.8
21/07:00pm W 16 21 - - - - - - - 11.3 1021.0 0.8
21/06:30pm W 18 21 - - - - - - - 11.4 1020.8 0.8
21/06:00pm W 20 23 - - - - - - - 11.8 1020.5 0.8
21/05:30pm W 18 23 - - - - - - - 11.8 1020.2 0.8
21/05:00pm W 19 24 - - - - - - - 12.2 1020.0 0.8
21/04:30pm W 17 19 - - - - - - - 12.5 1019.9 0.8
21/04:00pm W 19 23 - - - - - - - 12.1 1019.6 0.8
21/03:30pm WSW 21 25 - - - - - - - 12.5 1019.4 0.8
21/03:00pm WSW 19 23 - - - - - - - 12.2 1019.3 0.8
21/02:30pm WSW 19 24 - - - - - - - 12.7 1019.4 0.8
21/02:00pm WSW 18 22 - - - - - - - 12.1 1019.3 0.8
21/01:30pm WSW 25 29 - - - - - - - 11.9 1019.1 0.8
21/01:14pm W 21 27 - - - - - - - 12.6 1019.1 0.6
21/01:00pm WSW 13 16 - - - - - - - 12.4 1019.2 0.6
21/12:30pm WSW 17 20 - - - - - - - 11.6 1019.1 0.6
21/12:05pm WSW 19 29 - - - - - - - 11.4 1018.7 0.6
21/12:00pm WSW 18 21 - - - - - - - 12.0 1018.8 0.6
21/11:30am WSW 19 23 - - - - - - - 12.2 1018.7 0.6
21/11:00am WSW 19 23 - - - - - - - 11.8 1018.5 0.6
21/10:30am WSW 23 27 - - - - - - - 11.2 1018.2 0.6
21/10:09am WSW 18 24 - - - - - - - 10.7 1018.0 0.6
21/10:00am WSW 13 18 - - - - - - - 10.5 1018.1 0.6
21/09:59am WSW 13 18 - - - - - - - 10.5 1018.1 0.6
21/09:30am WSW 22 27 - - - - - - - 11.8 1017.4 6.8
21/09:00am WSW 21 26 - - - - - - - 11.7 1017.1 6.8
21/08:30am WSW 21 26 - - - - - - - 11.4 1016.8 6.8
21/08:00am SW 21 29 - - - - - - - 10.6 1016.4 6.8
21/07:30am SW 21 27 - - - - - - - 11.1 1015.8 6.6

Other formats

Comma delimited format used in spreadsheet applications
http://www.bom.gov.au/fwo/IDT60701/IDT60701.94804.axf

JavaScript Object Notation format (JSON) in row-major order
http://www.bom.gov.au/fwo/IDT60701/IDT60701.94804.json

Data quality

Most of these data are generated automatically and are frequently updated. Quality checks on data are not normally performed. It is possible for incorrect values to appear. Refer to information at About Latest Weather Observations and please check the disclaimer before using these data.